createdAt,value
2023-01-12T00:03:15.585Z,15.10
2023-01-12T00:05:42.508Z,16.20
2023-01-12T00:08:09.321Z,14.80
2023-01-12T00:10:36.232Z,18.30
2023-01-12T00:13:03.052Z,12.30
2023-01-12T00:15:48.616Z,12.70
2023-01-12T00:18:15.444Z,9.40
2023-01-12T00:20:48.440Z,13.00
2023-01-12T00:23:15.241Z,11.00
2023-01-12T00:25:42.008Z,13.20
2023-01-12T00:28:08.785Z,11.50
2023-01-12T00:30:35.559Z,10.70
2023-01-12T00:33:02.305Z,8.10
2023-01-12T00:35:29.236Z,9.00
2023-01-12T00:37:56.035Z,9.70
2023-01-12T00:40:22.919Z,10.60
2023-01-12T00:43:08.576Z,10.20
2023-01-12T00:45:35.372Z,11.10
2023-01-12T00:48:02.145Z,9.80
2023-01-12T00:50:29.598Z,8.20
2023-01-12T00:52:56.368Z,10.60
2023-01-12T00:55:23.502Z,13.50
2023-01-12T00:57:50.378Z,13.00
2023-01-12T01:00:18.198Z,12.00
2023-01-12T01:02:45.055Z,14.60
2023-01-12T01:05:12.176Z,18.50
2023-01-12T01:07:39.036Z,18.50
2023-01-12T01:10:06.570Z,18.80
2023-01-12T01:12:33.394Z,19.00
2023-01-12T01:15:00.319Z,17.40
2023-01-12T01:17:28.788Z,16.70
2023-01-12T01:19:55.590Z,18.20
2023-01-12T01:22:22.353Z,18.00
2023-01-12T01:24:49.241Z,15.40
2023-01-12T01:27:16.176Z,17.00
2023-01-12T01:29:43.001Z,14.60
2023-01-12T01:32:09.887Z,12.50
2023-01-12T01:34:37.379Z,13.20
2023-01-12T01:37:04.366Z,13.80
2023-01-12T01:39:31.176Z,12.30
2023-01-12T01:41:58.266Z,14.20
2023-01-12T01:44:31.248Z,13.70
2023-01-12T01:47:03.027Z,11.50
2023-01-12T01:49:37.195Z,14.10
2023-01-12T01:52:06.889Z,16.60
2023-01-12T01:54:36.619Z,17.70
2023-01-12T01:57:03.679Z,21.90
2023-01-12T01:59:32.636Z,22.40
2023-01-12T02:01:59.590Z,20.60
2023-01-12T02:04:26.507Z,22.40
2023-01-12T02:06:54.177Z,18.70
2023-01-12T02:09:22.674Z,21.20
2023-01-12T02:12:08.288Z,20.30
2023-01-12T02:14:54.052Z,24.00
2023-01-12T02:17:36.311Z,26.20
2023-01-12T02:20:21.567Z,15.80
2023-01-12T02:23:07.219Z,18.30
2023-01-12T02:25:33.957Z,16.30
2023-01-12T02:28:19.663Z,15.20
2023-01-12T02:31:40.673Z,15.00
2023-01-12T02:34:18.515Z,11.70
2023-01-12T02:36:52.981Z,8.30
2023-01-12T02:39:26.095Z,11.60
2023-01-12T02:42:25.661Z,9.60
2023-01-12T02:45:04.768Z,7.70
2023-01-12T02:47:55.814Z,11.30
2023-01-12T02:50:46.648Z,10.40
2023-01-12T02:53:24.532Z,10.50
2023-01-12T02:55:51.472Z,10.10
2023-01-12T02:58:19.007Z,8.20
2023-01-12T03:00:45.965Z,7.00
2023-01-12T03:03:12.964Z,7.50
2023-01-12T03:05:41.617Z,7.10
2023-01-12T03:08:09.715Z,9.00
2023-01-12T03:10:42.869Z,9.70
2023-01-12T03:13:12.206Z,6.40
2023-01-12T03:15:41.974Z,8.40
2023-01-12T03:18:12.716Z,8.10
2023-01-12T03:20:43.904Z,6.80
2023-01-12T03:23:17.676Z,9.00
2023-01-12T03:25:44.702Z,8.40
2023-01-12T03:28:12.921Z,8.50
2023-01-12T03:31:09.229Z,7.60
2023-01-12T03:33:36.037Z,8.20
2023-01-12T03:36:16.243Z,7.90
2023-01-12T03:38:47.083Z,8.80
2023-01-12T03:41:21.002Z,8.20
2023-01-12T03:43:51.132Z,7.50
2023-01-12T03:46:33.997Z,7.70
2023-01-12T03:49:03.256Z,10.20
2023-01-12T03:51:32.826Z,10.20
2023-01-12T03:53:59.720Z,10.60
2023-01-12T03:56:29.065Z,11.20
2023-01-12T03:58:55.900Z,10.00
2023-01-12T04:01:22.955Z,8.80
2023-01-12T04:03:49.935Z,8.60
2023-01-12T04:06:16.843Z,8.10
2023-01-12T04:08:43.651Z,7.70
2023-01-12T08:19:02.922Z,12.70
2023-01-12T08:21:39.789Z,18.00
2023-01-12T08:24:06.907Z,17.00
2023-01-12T08:26:36.865Z,15.40
2023-01-12T08:29:12.921Z,11.10
2023-01-12T08:31:39.958Z,9.70
2023-01-12T08:34:06.760Z,9.60
2023-01-12T08:36:33.603Z,8.00
2023-01-12T08:39:01.593Z,8.50
2023-01-12T08:41:34.643Z,12.30
2023-01-12T08:44:02.570Z,9.90
2023-01-12T08:46:37.435Z,9.10
2023-01-12T08:49:07.944Z,10.00
2023-01-12T08:51:35.440Z,9.60
2023-01-12T08:54:02.559Z,9.80
2023-01-12T08:56:29.564Z,11.10
2023-01-12T08:58:56.493Z,9.00
2023-01-12T09:01:23.559Z,10.50
2023-01-12T09:03:50.520Z,9.90
2023-01-12T09:06:19.408Z,10.50
2023-01-12T09:08:46.772Z,11.10
2023-01-12T09:11:15.662Z,9.00
2023-01-12T09:13:42.460Z,11.70
2023-01-12T09:16:14.629Z,10.70
2023-01-12T09:18:42.098Z,9.50
2023-01-12T09:21:10.993Z,11.40
2023-01-12T09:23:38.212Z,9.70
2023-01-12T09:26:06.602Z,10.70
2023-01-12T09:28:34.000Z,10.40
2023-01-12T09:31:05.738Z,9.70
2023-01-12T09:33:33.110Z,10.70
2023-01-12T09:36:03.767Z,10.50
2023-01-12T09:38:31.011Z,12.40
2023-01-12T09:41:02.398Z,9.60
2023-01-12T09:43:48.156Z,10.80
2023-01-12T09:46:37.040Z,11.20
2023-01-12T09:49:03.899Z,10.10
2023-01-12T09:51:36.464Z,10.70
2023-01-12T09:54:04.591Z,10.10
2023-01-12T09:56:40.807Z,10.00
2023-01-12T09:59:11.359Z,11.70
2023-01-12T10:01:38.345Z,9.10
2023-01-12T10:04:05.343Z,6.60
2023-01-12T10:06:33.147Z,9.80
2023-01-12T10:09:01.041Z,9.90
2023-01-12T10:11:57.221Z,10.30
2023-01-12T10:14:33.836Z,11.70
2023-01-12T10:17:10.229Z,11.90
2023-01-12T10:20:02.921Z,8.00
2023-01-12T10:22:38.202Z,9.00
2023-01-12T10:25:13.410Z,8.90
2023-01-12T10:27:42.453Z,9.00
2023-01-12T10:30:18.158Z,8.90
2023-01-12T10:32:45.076Z,10.40
2023-01-12T10:35:17.308Z,9.60
2023-01-12T10:37:55.072Z,10.50
2023-01-12T10:40:29.644Z,10.20
2023-01-12T10:43:21.839Z,10.60
2023-01-12T10:45:54.761Z,11.50
2023-01-12T10:51:20.181Z,11.30
2023-01-12T10:53:57.263Z,10.60
2023-01-12T10:56:30.066Z,12.30
2023-01-12T10:59:05.377Z,12.50
2023-01-12T11:01:53.542Z,12.90
2023-01-12T11:04:26.234Z,15.20
2023-01-12T11:07:08.452Z,12.50
2023-01-12T11:09:35.398Z,12.10
2023-01-12T11:12:03.823Z,12.10
2023-01-12T11:14:37.249Z,12.80
2023-01-12T11:17:30.886Z,11.60
2023-01-12T11:19:57.802Z,14.00
2023-01-12T11:22:27.634Z,12.80
2023-01-12T11:25:04.129Z,14.40
2023-01-12T11:27:36.173Z,14.50
2023-01-12T11:30:15.979Z,12.30
2023-01-12T11:33:12.848Z,13.80
2023-01-12T11:35:41.366Z,11.40
2023-01-12T11:38:18.959Z,14.70
2023-01-12T11:40:46.885Z,13.70
2023-01-12T11:43:35.179Z,12.30
2023-01-12T11:46:15.225Z,14.20
2023-01-12T11:49:10.870Z,14.40
2023-01-12T11:51:38.181Z,14.50
2023-01-12T11:54:05.920Z,10.90
2023-01-12T11:56:51.071Z,14.70
2023-01-12T16:19:00.004Z,27.90
2023-01-12T16:21:27.885Z,33.40
2023-01-12T16:23:57.747Z,26.80
2023-01-12T16:26:25.820Z,29.80
2023-01-12T16:28:52.737Z,26.80
2023-01-12T16:31:20.267Z,19.00
2023-01-12T16:33:47.066Z,23.10
2023-01-12T16:36:14.326Z,23.20
2023-01-12T16:38:41.168Z,24.40
2023-01-12T16:41:12.757Z,25.00
2023-01-12T16:43:39.495Z,21.20
2023-01-12T16:46:06.509Z,21.90
2023-01-12T16:48:34.078Z,22.00
2023-01-12T16:51:00.948Z,21.90
2023-01-12T16:53:28.060Z,24.60
2023-01-12T16:55:54.865Z,25.30
2023-01-12T16:58:21.748Z,25.70
2023-01-12T17:00:48.573Z,22.50
2023-01-12T17:03:15.408Z,20.70
2023-01-12T17:05:42.329Z,24.80
2023-01-12T17:08:09.382Z,20.60
2023-01-12T17:10:36.500Z,24.90
2023-01-12T17:13:03.394Z,24.20
2023-01-12T17:15:30.429Z,20.80
2023-01-12T17:17:57.513Z,21.80
2023-01-12T17:20:24.750Z,23.40
2023-01-12T17:22:51.834Z,28.80
2023-01-12T17:25:18.791Z,25.90
2023-01-12T17:27:45.666Z,25.80
2023-01-12T17:30:12.783Z,23.80
2023-01-12T17:32:39.792Z,21.20
2023-01-12T17:35:09.560Z,22.80
2023-01-12T17:37:36.474Z,24.50
2023-01-12T17:40:03.919Z,26.50
2023-01-12T17:42:51.684Z,29.20
2023-01-12T17:45:19.756Z,23.60
2023-01-12T17:47:46.629Z,21.70
2023-01-12T17:50:13.633Z,23.20
2023-01-12T17:52:40.507Z,22.60
2023-01-12T17:55:07.507Z,28.70
2023-01-12T17:57:36.541Z,24.70
2023-01-12T18:00:07.229Z,25.40
2023-01-12T18:02:40.919Z,23.50
2023-01-12T18:05:08.117Z,19.30
2023-01-12T18:07:35.646Z,23.70
2023-01-12T18:10:02.442Z,29.50
2023-01-12T18:12:30.211Z,29.80
2023-01-12T18:14:56.939Z,28.50
2023-01-12T18:17:24.386Z,24.10
2023-01-12T18:19:52.037Z,22.90
2023-01-12T18:22:18.823Z,23.50
2023-01-12T18:24:45.699Z,26.30
2023-01-12T18:27:12.789Z,26.60
2023-01-12T18:29:39.639Z,27.80
2023-01-12T18:32:06.594Z,18.30
2023-01-12T18:34:33.393Z,23.20
2023-01-12T18:37:00.280Z,23.00
2023-01-12T18:39:27.108Z,24.00
2023-01-12T18:42:12.487Z,27.80
2023-01-12T18:44:39.954Z,29.00
2023-01-12T18:47:25.380Z,25.30
2023-01-12T18:49:57.440Z,25.10
2023-01-12T18:52:42.713Z,21.90
2023-01-12T18:55:09.563Z,23.30
2023-01-12T18:57:36.381Z,24.10
2023-01-12T19:00:14.396Z,24.90
2023-01-12T19:02:42.016Z,32.70
2023-01-12T19:05:32.535Z,28.50
2023-01-12T19:08:00.415Z,27.40
2023-01-12T19:10:28.053Z,26.10
2023-01-12T19:13:18.105Z,25.20
2023-01-12T19:16:03.522Z,29.90
2023-01-12T19:18:30.391Z,30.80
2023-01-12T19:21:15.736Z,27.80
2023-01-12T19:24:01.198Z,22.30
2023-01-12T19:27:00.418Z,26.40
2023-01-12T19:29:27.262Z,25.50
2023-01-12T19:31:54.215Z,26.60
2023-01-12T19:34:21.045Z,27.90
2023-01-12T19:36:48.002Z,25.00
2023-01-12T19:39:15.595Z,20.00
2023-01-12T19:42:01.160Z,27.00
2023-01-12T19:44:27.974Z,26.90
2023-01-12T19:46:54.775Z,24.00
2023-01-12T19:49:21.534Z,26.70
2023-01-12T19:51:49.770Z,27.60
2023-01-12T19:54:16.579Z,29.70
2023-01-12T19:56:46.572Z,30.70
2023-01-12T19:59:14.346Z,26.90
2023-01-12T20:01:41.365Z,24.90
2023-01-12T20:04:08.525Z,25.30
2023-01-12T20:06:35.783Z,29.80
2023-01-12T20:09:02.658Z,28.10
2023-01-12T22:35:10.824Z,30.90
2023-01-12T22:37:38.182Z,28.90
2023-01-12T22:40:07.292Z,25.60
2023-01-12T22:42:52.894Z,27.90
2023-01-12T22:45:19.852Z,16.80
2023-01-12T22:47:51.587Z,22.40
2023-01-12T22:50:18.519Z,21.50
2023-01-12T22:52:50.601Z,25.00
2023-01-12T22:55:17.796Z,22.70
2023-01-12T22:57:44.702Z,20.90
2023-01-12T23:00:13.183Z,14.90
2023-01-12T23:02:59.056Z,18.90
2023-01-12T23:05:27.566Z,18.60
2023-01-12T23:07:55.234Z,18.50
2023-01-12T23:10:22.185Z,18.90
2023-01-12T23:13:07.841Z,19.40
2023-01-12T23:15:53.566Z,21.10
2023-01-12T23:18:22.187Z,20.20
2023-01-12T23:20:49.432Z,21.50
2023-01-12T23:23:18.249Z,18.00
2023-01-12T23:25:46.286Z,21.60
2023-01-12T23:28:14.053Z,16.70
2023-01-12T23:30:42.458Z,21.10
2023-01-12T23:33:13.405Z,22.20
2023-01-12T23:35:41.233Z,20.80
2023-01-12T23:38:09.658Z,17.60
2023-01-12T23:40:38.119Z,17.60
2023-01-12T23:43:05.074Z,18.30
2023-01-12T23:45:49.114Z,17.30
2023-01-12T23:48:16.017Z,18.80
2023-01-12T23:50:43.018Z,17.10
